Terminal Aerodrome Forecast
Issued by NWS

Home | Current Version | Previous Version | Text Only | Print | Product List | Glossary On
Versions: 1 2 3 4 5 6 7 8 9 10 11 12 13 14 15
000
FTUS45 KMSO 210520
TAFSMN
TAF
KSMN 210520Z 2106/2206 00000KT 4SM BR VCFG SCT015 BKN050
     FM211100 00000KT 1/2SM FZFG BKN015
     FM211300 VRB03KT 5SM BR VCSH BKN090
     FM211600 VRB04KT 3SM -SN BR OVC040
     FM212100 VRB04KT P6SM VCSH BKN100
      AMD LTD TO CLD VIS AND WIND=

USA.gov is the U.S. government's official web portal to all federal, state and local government web resources and services.